createdAt,value
2016-10-21T00:00:13.529Z,7.93
2016-10-21T00:01:13.534Z,7.91
2016-10-21T00:02:13.568Z,7.91
2016-10-21T00:03:13.607Z,7.92
2016-10-21T00:04:13.587Z,7.95
2016-10-21T00:05:13.515Z,7.88
2016-10-21T00:06:13.638Z,7.93
2016-10-21T00:07:13.506Z,7.99
2016-10-21T00:08:13.599Z,7.86
2016-10-21T00:09:13.765Z,7.92
2016-10-21T00:10:13.648Z,7.92
2016-10-21T00:11:13.603Z,7.95
2016-10-21T00:12:13.535Z,7.99
2016-10-21T00:13:13.665Z,7.99
2016-10-21T00:14:13.643Z,8.01
2016-10-21T00:15:13.654Z,8.01
2016-10-21T00:16:13.578Z,7.89
2016-10-21T00:17:13.617Z,7.88
2016-10-21T00:18:13.653Z,7.88
2016-10-21T00:19:13.578Z,7.91
2016-10-21T00:20:13.592Z,7.91
2016-10-21T00:21:13.579Z,7.98
2016-10-21T00:22:13.641Z,7.92
2016-10-21T00:23:13.598Z,7.92
2016-10-21T00:24:13.627Z,7.92
2016-10-21T00:25:13.623Z,7.92
2016-10-21T00:26:13.551Z,7.88
2016-10-21T00:27:13.528Z,7.89
2016-10-21T00:28:13.599Z,7.93
2016-10-21T00:29:13.819Z,7.95
2016-10-21T00:30:13.699Z,8.01
2016-10-21T00:31:13.533Z,7.91
2016-10-21T00:32:13.746Z,8.04
2016-10-21T00:33:13.581Z,7.95
2016-10-21T00:34:13.653Z,7.92
2016-10-21T00:35:14.055Z,7.95
2016-10-21T00:36:13.580Z,7.83
2016-10-21T00:37:13.613Z,7.95
2016-10-21T00:38:13.643Z,7.89
2016-10-21T00:39:13.645Z,7.99
2016-10-21T00:40:13.733Z,7.83
2016-10-21T00:41:13.723Z,7.85
2016-10-21T00:42:13.657Z,7.91
2016-10-21T00:43:13.648Z,7.91
2016-10-21T00:44:13.680Z,7.83
2016-10-21T00:45:13.637Z,7.92
2016-10-21T00:46:13.702Z,7.93
2016-10-21T00:47:13.733Z,7.8
2016-10-21T00:48:13.600Z,7.86
2016-10-21T00:49:13.753Z,7.89
2016-10-21T00:50:13.751Z,7.8
2016-10-21T00:51:13.747Z,7.78
2016-10-21T00:52:13.759Z,7.78
2016-10-21T00:53:13.670Z,7.75
2016-10-21T00:54:13.642Z,7.74
2016-10-21T00:55:13.648Z,7.82
2016-10-21T00:56:13.753Z,7.78
2016-10-21T00:57:13.727Z,7.75
2016-10-21T00:58:13.736Z,7.77
2016-10-21T00:59:13.702Z,7.68
2016-10-21T01:00:13.689Z,7.61
2016-10-21T01:01:13.719Z,7.71
2016-10-21T01:02:13.711Z,7.7
2016-10-21T01:03:13.745Z,7.58
2016-10-21T01:04:13.823Z,7.68
2016-10-21T01:05:13.711Z,7.56
2016-10-21T01:06:13.723Z,7.59
2016-10-21T01:07:13.738Z,7.51
2016-10-21T01:08:13.685Z,7.52
2016-10-21T01:09:13.645Z,7.47
2016-10-21T01:10:13.747Z,7.41
2016-10-21T01:11:13.695Z,7.39
2016-10-21T01:12:13.817Z,7.52
2016-10-21T01:13:13.856Z,7.44
2016-10-21T01:14:13.780Z,7.37
2016-10-21T01:15:13.743Z,7.39
2016-10-21T01:16:13.810Z,7.4
2016-10-21T01:17:13.740Z,7.3
2016-10-21T01:18:13.747Z,7.44
2016-10-21T01:19:13.699Z,7.34
2016-10-21T01:20:13.763Z,7.3
2016-10-21T01:21:13.770Z,7.29
2016-10-21T01:22:13.760Z,7.23
2016-10-21T01:23:13.822Z,7.16
2016-10-21T01:24:13.832Z,7.19
2016-10-21T01:25:13.768Z,7.13
2016-10-21T01:26:13.696Z,7.11
2016-10-21T01:27:13.833Z,7.08
2016-10-21T01:28:14.193Z,7.09
2016-10-21T01:29:13.856Z,7.15
2016-10-21T01:30:13.817Z,7.04
2016-10-21T01:31:13.795Z,7.13
2016-10-21T01:32:13.798Z,7.18
2016-10-21T01:33:13.861Z,7.19
2016-10-21T01:34:13.814Z,7.16
2016-10-21T01:35:13.872Z,7.23
2016-10-21T01:36:13.845Z,7.18
2016-10-21T01:37:13.882Z,7.22
2016-10-21T01:38:13.847Z,7.19
2016-10-21T01:39:13.844Z,7.21
2016-10-21T01:40:13.862Z,7.26
2016-10-21T01:41:13.887Z,7.16
2016-10-21T01:42:13.890Z,7.22
2016-10-21T01:43:13.778Z,7.26
2016-10-21T01:44:13.892Z,7.31
2016-10-21T01:45:13.884Z,7.26
2016-10-21T01:46:13.905Z,7.23
2016-10-21T01:47:13.835Z,7.19
2016-10-21T01:48:13.836Z,7.22
2016-10-21T01:49:13.857Z,7.23
2016-10-21T01:50:13.883Z,7.19
2016-10-21T01:51:13.859Z,7.22
2016-10-21T01:52:13.758Z,7.22
2016-10-21T01:53:13.800Z,7.23
2016-10-21T01:54:13.846Z,7.26
2016-10-21T01:55:13.930Z,7.29
2016-10-21T01:56:13.838Z,7.26
2016-10-21T01:57:13.852Z,7.3
2016-10-21T01:58:13.790Z,7.29
2016-10-21T01:59:13.886Z,7.23
2016-10-21T02:00:13.987Z,7.19
2016-10-21T02:01:13.791Z,7.19
2016-10-21T02:02:13.946Z,7.22
2016-10-21T02:03:13.953Z,7.18
2016-10-21T02:04:13.952Z,7.29
2016-10-21T02:05:13.893Z,7.29
2016-10-21T02:06:13.886Z,7.19
2016-10-21T02:07:13.879Z,7.36
2016-10-21T02:08:13.957Z,7.3
2016-10-21T02:09:13.849Z,7.26
2016-10-21T02:10:13.971Z,7.26
2016-10-21T02:11:13.853Z,7.26
2016-10-21T02:12:13.938Z,7.29
2016-10-21T02:13:13.986Z,7.3
2016-10-21T02:14:13.919Z,7.33
2016-10-21T02:15:13.983Z,7.23
2016-10-21T02:16:14.008Z,7.18
2016-10-21T02:17:13.978Z,7.37
2016-10-21T02:18:13.957Z,7.29
2016-10-21T02:19:13.919Z,7.34
2016-10-21T02:20:13.926Z,7.21
2016-10-21T02:21:13.963Z,7.47
2016-10-21T02:22:13.991Z,7.27
2016-10-21T02:23:14.001Z,7.27
2016-10-21T02:24:13.934Z,7.36
2016-10-21T02:25:14.012Z,7.37
2016-10-21T02:26:14.006Z,7.26
2016-10-21T02:27:13.975Z,7.34
2016-10-21T02:28:13.983Z,7.29
2016-10-21T02:29:14.024Z,7.44
2016-10-21T02:30:13.897Z,7.51
2016-10-21T02:31:13.950Z,7.48
2016-10-21T02:32:13.894Z,7.41
2016-10-21T02:33:13.995Z,7.37
2016-10-21T02:34:13.993Z,7.45
2016-10-21T02:35:13.983Z,7.37
2016-10-21T02:36:14.049Z,7.47
2016-10-21T02:37:13.924Z,7.37
2016-10-21T02:38:14.006Z,7.37
2016-10-21T02:39:13.894Z,7.39
2016-10-21T02:40:13.981Z,7.4
2016-10-21T02:41:14.057Z,7.45
2016-10-21T02:42:13.948Z,7.37
2016-10-21T02:43:13.908Z,7.47
2016-10-21T02:44:14.056Z,7.47
2016-10-21T02:45:14.062Z,7.37
2016-10-21T02:46:14.024Z,7.47
2016-10-21T02:47:13.989Z,7.49
2016-10-21T02:48:14.069Z,7.39
2016-10-21T02:49:14.009Z,7.48
2016-10-21T02:50:14.105Z,7.33
2016-10-21T02:51:14.028Z,7.48
2016-10-21T02:52:14.047Z,7.37
2016-10-21T02:53:13.963Z,7.48
2016-10-21T02:54:14.076Z,7.51
2016-10-21T02:55:14.052Z,7.56
2016-10-21T02:56:14.022Z,7.39
2016-10-21T02:57:14.023Z,7.48
2016-10-21T02:58:14.073Z,7.47
2016-10-21T02:59:14.040Z,7.48
2016-10-21T03:00:14.026Z,7.48
2016-10-21T03:01:14.062Z,7.4
2016-10-21T03:02:13.960Z,7.45
2016-10-21T03:03:14.041Z,7.34
2016-10-21T03:04:14.123Z,7.41
2016-10-21T03:05:14.084Z,7.44
2016-10-21T03:06:14.117Z,7.37
2016-10-21T03:07:14.083Z,7.44
2016-10-21T03:08:14.167Z,7.34
2016-10-21T03:09:14.162Z,7.37
2016-10-21T03:10:14.093Z,7.44
2016-10-21T03:11:14.100Z,7.39
2016-10-21T03:12:14.090Z,7.51
2016-10-21T03:13:14.133Z,7.37
2016-10-21T03:14:14.097Z,7.36
2016-10-21T03:15:14.103Z,7.4
2016-10-21T03:16:14.100Z,7.51
2016-10-21T03:17:14.103Z,7.41
2016-10-21T03:18:14.120Z,7.36
2016-10-21T03:19:14.081Z,7.4
2016-10-21T03:20:14.102Z,7.45
2016-10-21T03:21:14.102Z,7.39
2016-10-21T03:22:14.166Z,7.3
2016-10-21T03:23:14.143Z,7.4
2016-10-21T03:24:14.145Z,7.4
2016-10-21T03:25:14.203Z,7.39
2016-10-21T03:26:14.123Z,7.26
2016-10-21T03:27:14.203Z,7.26
2016-10-21T03:28:14.153Z,7.31
2016-10-21T03:29:14.117Z,7.36
2016-10-21T03:30:14.133Z,7.39
2016-10-21T03:31:14.046Z,7.34
2016-10-21T03:32:14.129Z,7.41
2016-10-21T03:33:14.146Z,7.22
2016-10-21T03:34:14.129Z,7.47
2016-10-21T03:35:14.132Z,7.23
2016-10-21T03:36:14.211Z,7.23
2016-10-21T03:37:14.205Z,7.29
2016-10-21T03:38:14.138Z,7.23
2016-10-21T03:39:14.153Z,7.27
2016-10-21T03:40:14.112Z,7.3
2016-10-21T03:41:14.203Z,7.26
2016-10-21T03:42:14.205Z,7.21
2016-10-21T03:43:14.197Z,7.22
2016-10-21T03:44:14.178Z,7.22
2016-10-21T03:45:14.744Z,7.22
2016-10-21T03:46:14.217Z,7.16
2016-10-21T03:47:14.119Z,7.22
2016-10-21T03:48:14.198Z,7.15
2016-10-21T03:49:14.163Z,7.13
2016-10-21T03:50:14.229Z,7.13
2016-10-21T03:51:14.236Z,7.12
2016-10-21T03:52:14.152Z,7.26
2016-10-21T03:53:14.182Z,7.19
2016-10-21T03:54:14.263Z,7.22
2016-10-21T03:55:14.239Z,7.11
2016-10-21T03:56:14.230Z,7.04
2016-10-21T03:57:14.241Z,7.03
2016-10-21T03:58:14.206Z,7.11
2016-10-21T03:59:14.270Z,7.13
2016-10-21T04:00:14.198Z,7.08
2016-10-21T04:01:14.239Z,7.04
2016-10-21T04:02:14.152Z,7.08
2016-10-21T04:03:14.205Z,7.05
2016-10-21T04:04:14.248Z,7.05
2016-10-21T04:05:14.248Z,7.03
2016-10-21T04:06:14.211Z,7.13
2016-10-21T04:07:14.266Z,7.11
2016-10-21T04:08:14.271Z,7.15
2016-10-21T04:09:14.255Z,7.15
2016-10-21T04:10:14.220Z,7.11
2016-10-21T04:11:14.252Z,7.11
2016-10-21T04:12:14.225Z,7.11
2016-10-21T04:13:14.169Z,7.13
2016-10-21T04:14:14.258Z,7.13
2016-10-21T04:15:14.274Z,7.11
2016-10-21T04:16:14.284Z,7.15
2016-10-21T04:17:14.204Z,7.16
2016-10-21T04:18:14.296Z,7.11
2016-10-21T04:19:14.217Z,7.05
2016-10-21T04:20:14.344Z,7.08
2016-10-21T04:21:14.328Z,7.18
2016-10-21T04:22:14.267Z,7.08
2016-10-21T04:23:14.320Z,7.05
2016-10-21T04:24:14.322Z,7.11
2016-10-21T04:25:14.227Z,7.04
2016-10-21T04:26:14.308Z,7.05
2016-10-21T04:27:14.342Z,7.01
2016-10-21T04:28:14.305Z,7.05
2016-10-21T04:29:14.344Z,7.05
2016-10-21T04:30:14.233Z,7.09
2016-10-21T04:31:14.352Z,7.03
2016-10-21T04:32:14.210Z,6.93
2016-10-21T04:33:14.490Z,6.9
2016-10-21T04:34:14.365Z,6.98
2016-10-21T04:35:14.701Z,6.94
2016-10-21T04:36:17.488Z,6.93
2016-10-21T04:37:14.305Z,6.93
2016-10-21T04:38:14.334Z,6.86
2016-10-21T04:39:14.265Z,6.9
2016-10-21T04:40:14.289Z,6.93
2016-10-21T04:41:14.387Z,6.91
2016-10-21T04:42:14.393Z,6.94
2016-10-21T04:43:14.312Z,6.85
2016-10-21T04:44:14.303Z,6.83
2016-10-21T04:45:14.367Z,6.9
2016-10-21T04:46:14.359Z,6.91
2016-10-21T04:47:14.303Z,6.86
2016-10-21T04:48:14.328Z,6.79
2016-10-21T04:49:14.275Z,6.9
2016-10-21T04:50:14.288Z,6.83
2016-10-21T04:51:14.371Z,6.93
2016-10-21T04:52:14.384Z,6.93
2016-10-21T04:53:14.393Z,6.86
2016-10-21T04:54:14.334Z,6.88
2016-10-21T04:55:14.318Z,6.95
2016-10-21T04:56:14.383Z,6.91
2016-10-21T04:57:14.425Z,6.93
2016-10-21T04:58:14.430Z,6.85
2016-10-21T04:59:14.381Z,6.88
2016-10-21T05:00:14.371Z,6.9
2016-10-21T05:01:14.388Z,6.95
2016-10-21T05:02:14.362Z,6.94
2016-10-21T05:03:14.364Z,6.86
2016-10-21T05:04:14.404Z,6.9
2016-10-21T05:05:14.333Z,6.85
2016-10-21T05:06:14.417Z,6.85
2016-10-21T05:07:14.463Z,6.8
2016-10-21T05:08:14.346Z,6.8
2016-10-21T05:09:14.384Z,6.82
2016-10-21T05:10:14.505Z,6.79
2016-10-21T05:11:14.480Z,6.8
2016-10-21T05:12:14.331Z,6.75
2016-10-21T05:13:14.423Z,6.76
2016-10-21T05:14:14.360Z,6.76
2016-10-21T05:15:14.477Z,6.75
2016-10-21T05:16:14.402Z,6.86
2016-10-21T05:17:14.466Z,6.76
2016-10-21T05:18:14.444Z,6.76
2016-10-21T05:19:14.450Z,6.78
2016-10-21T05:20:14.510Z,6.65
2016-10-21T05:21:14.442Z,6.68
2016-10-21T05:22:14.498Z,6.55
2016-10-21T05:23:14.373Z,6.65
2016-10-21T05:24:14.500Z,6.68
2016-10-21T05:25:14.454Z,6.57
2016-10-21T05:26:14.526Z,6.65
2016-10-21T05:27:14.411Z,6.58
2016-10-21T05:28:14.507Z,6.62
2016-10-21T05:29:14.474Z,6.55
2016-10-21T05:30:14.488Z,6.65
2016-10-21T05:31:14.469Z,6.6
2016-10-21T05:32:14.450Z,6.67
2016-10-21T05:33:14.475Z,6.62
2016-10-21T05:34:14.542Z,6.6
2016-10-21T05:35:14.495Z,6.7
2016-10-21T05:36:14.517Z,6.61
2016-10-21T05:37:14.506Z,6.68
2016-10-21T05:38:14.459Z,6.68
2016-10-21T05:39:14.501Z,6.73
2016-10-21T05:40:14.464Z,6.67
2016-10-21T05:41:14.471Z,6.6
2016-10-21T05:42:14.520Z,6.62
2016-10-21T05:43:14.552Z,6.65
2016-10-21T05:44:14.572Z,6.57
2016-10-21T05:45:14.573Z,6.72
2016-10-21T05:46:14.517Z,6.67
2016-10-21T05:47:14.553Z,6.7
2016-10-21T05:48:14.530Z,6.68
2016-10-21T05:49:14.526Z,6.67
2016-10-21T05:50:14.523Z,6.64
2016-10-21T05:51:14.506Z,6.61
2016-10-21T05:52:14.505Z,6.57
2016-10-21T05:53:14.628Z,6.62
2016-10-21T05:54:14.545Z,6.67
2016-10-21T05:55:14.600Z,6.72
2016-10-21T05:56:14.591Z,6.68
2016-10-21T05:57:14.616Z,6.54
2016-10-21T05:58:14.566Z,6.62
2016-10-21T05:59:14.563Z,6.65
2016-10-21T06:00:14.627Z,6.64
2016-10-21T06:01:14.488Z,6.72
2016-10-21T06:02:14.528Z,6.6
2016-10-21T06:03:14.573Z,6.62
2016-10-21T06:04:14.462Z,6.7
2016-10-21T06:05:14.660Z,6.58
2016-10-21T06:06:14.488Z,6.62
2016-10-21T06:07:14.475Z,6.72
2016-10-21T06:08:14.633Z,6.64
2016-10-21T06:09:14.590Z,6.67
2016-10-21T06:10:14.530Z,6.73
2016-10-21T06:11:14.587Z,6.72
2016-10-21T06:12:14.582Z,6.78
2016-10-21T06:13:14.580Z,6.75
2016-10-21T06:14:14.574Z,6.78
2016-10-21T06:15:14.617Z,6.78
2016-10-21T06:16:14.517Z,6.8
2016-10-21T06:17:14.576Z,6.8
2016-10-21T06:18:14.673Z,6.73
2016-10-21T06:19:14.513Z,6.79
2016-10-21T06:20:14.625Z,6.75
2016-10-21T06:21:14.652Z,6.75
2016-10-21T06:22:14.592Z,6.75
2016-10-21T06:23:14.624Z,6.86
2016-10-21T06:24:14.656Z,6.82
2016-10-21T06:25:14.696Z,6.9
2016-10-21T06:26:14.608Z,6.85
2016-10-21T06:27:14.568Z,6.86
2016-10-21T06:28:14.706Z,6.9
2016-10-21T06:29:14.571Z,6.88
2016-10-21T06:30:14.622Z,6.82
2016-10-21T06:31:14.691Z,6.9
2016-10-21T06:32:14.698Z,6.88
2016-10-21T06:33:14.616Z,6.83
2016-10-21T06:34:14.696Z,6.86
2016-10-21T06:35:14.670Z,6.82
2016-10-21T06:36:14.674Z,6.86
2016-10-21T06:37:14.606Z,6.88
2016-10-21T06:38:14.645Z,6.86
2016-10-21T06:39:14.727Z,6.86
2016-10-21T06:40:14.598Z,6.9
2016-10-21T06:41:14.730Z,6.93
2016-10-21T06:42:14.741Z,6.86
2016-10-21T06:43:14.643Z,6.83
2016-10-21T06:44:14.590Z,6.95
2016-10-21T06:45:14.685Z,6.83
2016-10-21T06:46:14.653Z,6.9
2016-10-21T06:47:14.744Z,6.9
2016-10-21T06:48:14.770Z,6.91
2016-10-21T06:49:14.775Z,6.91
2016-10-21T06:50:14.647Z,6.9
2016-10-21T06:51:14.668Z,6.98
2016-10-21T06:52:14.781Z,6.98
2016-10-21T06:53:14.804Z,7.03
2016-10-21T06:54:14.765Z,7.03
2016-10-21T06:55:14.733Z,7.05
2016-10-21T06:56:14.719Z,7.08
2016-10-21T06:57:14.705Z,7.08
2016-10-21T06:58:14.645Z,7.11
2016-10-21T06:59:14.801Z,7.11
2016-10-21T07:00:14.793Z,7.11
2016-10-21T07:01:14.745Z,7.11
2016-10-21T07:02:14.759Z,7.15
2016-10-21T07:03:14.672Z,7.08
2016-10-21T07:04:14.692Z,7.01
2016-10-21T07:05:14.749Z,7.11
2016-10-21T07:06:14.798Z,7.01
2016-10-21T07:07:14.719Z,7.16
2016-10-21T07:08:14.722Z,7.11
2016-10-21T07:09:14.833Z,7.08
2016-10-21T07:10:14.847Z,7.19
2016-10-21T07:11:14.761Z,7.08
2016-10-21T07:12:14.799Z,7.09
2016-10-21T07:13:14.781Z,7.12
2016-10-21T07:14:14.806Z,7.15
2016-10-21T07:15:14.810Z,7.16
2016-10-21T07:16:14.815Z,7.16
2016-10-21T07:17:14.781Z,7.16
2016-10-21T07:18:14.824Z,7.13
2016-10-21T07:19:14.758Z,7.15
2016-10-21T07:20:14.859Z,7.15
2016-10-21T07:21:14.829Z,7.16
2016-10-21T07:22:14.840Z,7.27
2016-10-21T07:23:14.772Z,7.15
2016-10-21T07:24:14.849Z,7.11
2016-10-21T07:25:14.838Z,7.16
2016-10-21T07:26:14.993Z,7.12
2016-10-21T07:27:14.861Z,7.21
2016-10-21T07:28:14.894Z,7.15
2016-10-21T07:29:14.877Z,7.19
2016-10-21T07:30:14.844Z,7.15
2016-10-21T07:31:14.863Z,7.19
2016-10-21T07:32:14.708Z,7.22
2016-10-21T07:33:14.833Z,7.15
2016-10-21T07:34:14.812Z,7.13
2016-10-21T07:35:14.759Z,7.16
2016-10-21T07:36:14.865Z,7.13
2016-10-21T07:37:14.851Z,7.13
2016-10-21T07:38:14.828Z,7.16
2016-10-21T07:39:14.857Z,7.18
2016-10-21T07:40:14.780Z,7.22
2016-10-21T07:41:14.797Z,7.29
2016-10-21T07:42:14.841Z,7.23
2016-10-21T07:43:14.777Z,7.23
2016-10-21T07:44:14.903Z,7.27
2016-10-21T07:45:14.989Z,7.3
2016-10-21T07:46:14.828Z,7.31
2016-10-21T07:47:14.922Z,7.29
2016-10-21T07:48:14.864Z,7.31
2016-10-21T07:49:14.876Z,7.26
2016-10-21T07:50:14.935Z,7.27
2016-10-21T07:51:14.835Z,7.23
2016-10-21T07:52:14.927Z,7.41
2016-10-21T07:53:14.918Z,7.4
2016-10-21T07:54:14.878Z,7.31
2016-10-21T07:55:14.972Z,7.47
2016-10-21T07:56:14.950Z,7.33
2016-10-21T07:57:14.880Z,7.45
2016-10-21T07:58:14.898Z,7.45
2016-10-21T07:59:14.867Z,7.31
2016-10-21T08:00:14.915Z,7.41
2016-10-21T08:01:14.897Z,7.44
2016-10-21T08:02:14.954Z,7.29
2016-10-21T08:03:14.939Z,7.39
2016-10-21T08:04:14.898Z,7.31
2016-10-21T08:05:15.039Z,7.29
2016-10-21T08:06:15.065Z,7.33
2016-10-21T08:07:14.925Z,7.26
2016-10-21T08:08:14.956Z,7.4
2016-10-21T08:09:14.902Z,7.22
2016-10-21T08:10:14.897Z,7.36
2016-10-21T08:11:15.004Z,7.29
2016-10-21T08:12:15.248Z,7.4
2016-10-21T08:13:15.212Z,7.4
2016-10-21T08:14:15.260Z,7.39
2016-10-21T08:15:15.476Z,7.37
2016-10-21T08:16:16.463Z,7.44
2016-10-21T08:17:28.048Z,7.49
2016-10-21T08:18:15.253Z,7.52
2016-10-21T08:19:15.052Z,7.55
2016-10-21T08:20:14.887Z,7.63
2016-10-21T08:21:14.950Z,7.59
2016-10-21T08:22:14.915Z,7.67
2016-10-21T08:23:15.015Z,7.64
2016-10-21T08:24:14.962Z,7.7
2016-10-21T08:25:14.970Z,7.71
2016-10-21T08:26:15.053Z,7.77
2016-10-21T08:27:15.022Z,7.75
2016-10-21T08:28:14.940Z,7.78
2016-10-21T08:29:15.065Z,7.86
2016-10-21T08:30:14.933Z,7.85
2016-10-21T08:31:14.965Z,7.86
2016-10-21T08:32:15.003Z,7.82
2016-10-21T08:33:14.958Z,7.71
2016-10-21T08:34:14.936Z,7.73
2016-10-21T08:35:14.883Z,7.67
2016-10-21T08:36:14.933Z,7.71
2016-10-21T08:37:14.900Z,7.71
2016-10-21T08:38:14.976Z,7.75
2016-10-21T08:39:14.961Z,7.89
2016-10-21T08:40:15.008Z,7.86
2016-10-21T08:41:15.090Z,7.98
2016-10-21T08:42:15.082Z,7.85
2016-10-21T08:43:14.942Z,7.95
2016-10-21T08:44:15.013Z,7.89
2016-10-21T08:45:15.098Z,7.86
2016-10-21T08:46:14.953Z,7.88
2016-10-21T08:47:15.017Z,7.96
2016-10-21T08:48:14.919Z,7.92
2016-10-21T08:49:15.055Z,7.96
2016-10-21T08:50:15.015Z,7.93
2016-10-21T08:51:14.995Z,7.99
2016-10-21T08:52:14.951Z,7.96
2016-10-21T08:53:15.812Z,7.92
2016-10-21T08:54:14.970Z,7.99
2016-10-21T08:55:15.083Z,8.06
2016-10-21T08:56:15.120Z,7.96
2016-10-21T08:57:15.010Z,8.06
2016-10-21T08:58:15.107Z,8.06
2016-10-21T08:59:15.112Z,8.07
2016-10-21T09:00:15.075Z,7.99
2016-10-21T09:01:15.073Z,7.99
2016-10-21T09:02:15.050Z,7.99
2016-10-21T09:03:15.029Z,7.99
2016-10-21T09:04:15.008Z,7.98
2016-10-21T09:05:15.086Z,7.96
2016-10-21T09:06:17.499Z,8.07
2016-10-21T09:07:14.976Z,8.17
2016-10-21T09:08:15.143Z,8.1
2016-10-21T09:09:15.199Z,8.11
2016-10-21T09:10:15.044Z,8.1
2016-10-21T09:11:15.110Z,8.11
2016-10-21T09:12:15.164Z,8.11
2016-10-21T09:13:15.076Z,8.22
2016-10-21T09:14:15.088Z,8.22
2016-10-21T09:15:15.116Z,8.26
2016-10-21T09:16:15.181Z,8.22
2016-10-21T09:17:15.169Z,8.14
2016-10-21T09:18:15.088Z,8.16
2016-10-21T09:19:15.161Z,8.26
2016-10-21T09:20:15.051Z,8.32
2016-10-21T09:21:15.164Z,8.32
2016-10-21T09:22:15.015Z,8.39
2016-10-21T09:23:15.047Z,8.29
2016-10-21T09:24:15.243Z,8.25
2016-10-21T09:25:15.235Z,8.1
2016-10-21T09:26:15.160Z,8.22
2016-10-21T09:27:15.158Z,8.11
2016-10-21T09:28:15.114Z,8.09
2016-10-21T09:29:15.149Z,8.25
2016-10-21T09:30:15.217Z,8.28
2016-10-21T09:31:15.110Z,8.24
2016-10-21T09:32:15.207Z,8.26
2016-10-21T09:33:15.112Z,8.13
2016-10-21T09:34:15.093Z,8.26
2016-10-21T09:35:15.249Z,8.28
2016-10-21T09:36:15.086Z,8.24
2016-10-21T09:37:15.755Z,8.04
2016-10-21T09:38:15.103Z,8.17
2016-10-21T09:39:15.135Z,8.13
2016-10-21T09:40:15.114Z,8.14
2016-10-21T09:41:15.696Z,8.11
2016-10-21T09:42:15.901Z,8.32
2016-10-21T09:43:15.666Z,8.24
2016-10-21T09:44:16.041Z,8.13
2016-10-21T09:45:15.621Z,8.07
2016-10-21T09:46:15.728Z,8.19
2016-10-21T09:47:15.321Z,8.14
2016-10-21T09:48:15.179Z,8.22
2016-10-21T09:49:15.739Z,8.28
2016-10-21T09:50:16.942Z,8.29
2016-10-21T09:51:15.370Z,8.31
2016-10-21T09:52:15.226Z,8.28
2016-10-21T09:53:15.256Z,8.34
2016-10-21T09:54:15.213Z,8.36
2016-10-21T09:55:15.313Z,8.36
2016-10-21T09:56:15.202Z,8.29
2016-10-21T09:57:15.184Z,8.17
2016-10-21T09:58:15.208Z,8.31
2016-10-21T09:59:15.286Z,8.35
2016-10-21T10:00:15.228Z,8.46
2016-10-21T10:01:16.408Z,8.49
2016-10-21T10:02:15.296Z,8.62
2016-10-21T10:03:15.220Z,8.72
2016-10-21T10:04:15.207Z,8.62
2016-10-21T10:05:15.320Z,8.57
2016-10-21T10:06:15.267Z,8.52
2016-10-21T10:07:15.255Z,8.44
2016-10-21T10:08:15.319Z,8.52
2016-10-21T10:09:15.143Z,8.67
2016-10-21T10:10:15.321Z,8.71
2016-10-21T10:11:15.368Z,8.58
2016-10-21T10:12:15.338Z,8.67
2016-10-21T10:13:15.289Z,8.79
2016-10-21T10:14:15.335Z,8.74
2016-10-21T10:15:15.324Z,8.71
2016-10-21T10:16:15.174Z,8.61
2016-10-21T10:17:15.314Z,8.65
2016-10-21T10:18:15.193Z,8.67
2016-10-21T10:19:16.216Z,8.76
2016-10-21T10:20:15.327Z,8.83
2016-10-21T10:21:15.444Z,8.71
2016-10-21T10:22:15.298Z,8.72
2016-10-21T10:23:15.370Z,8.79
2016-10-21T10:24:15.345Z,8.87
2016-10-21T10:25:15.349Z,8.74
2016-10-21T10:26:15.357Z,8.9
2016-10-21T10:27:15.225Z,8.79
2016-10-21T10:28:15.341Z,8.77
2016-10-21T10:29:15.444Z,8.86
2016-10-21T10:30:15.315Z,8.9
2016-10-21T10:31:15.438Z,8.87
2016-10-21T10:32:15.325Z,8.89
2016-10-21T10:33:15.421Z,8.9
2016-10-21T10:34:15.420Z,8.87
2016-10-21T10:35:15.387Z,8.76
2016-10-21T10:36:15.320Z,8.9
2016-10-21T10:37:15.331Z,8.95
2016-10-21T10:38:15.328Z,9
2016-10-21T10:39:15.269Z,9.08
2016-10-21T10:40:15.234Z,8.97
2016-10-21T10:41:15.370Z,8.95
2016-10-21T10:42:15.320Z,9.08
2016-10-21T10:43:15.440Z,9.04
2016-10-21T10:44:15.345Z,9.16
2016-10-21T10:45:15.316Z,9.03
2016-10-21T10:46:15.305Z,9.08
2016-10-21T10:47:15.435Z,9.11
2016-10-21T10:48:15.465Z,9.09
2016-10-21T10:49:15.933Z,9.08
2016-10-21T10:50:15.437Z,9.05
2016-10-21T10:51:15.430Z,9.08
2016-10-21T10:52:15.390Z,9.09
2016-10-21T10:53:18.115Z,9.09
2016-10-21T10:54:18.081Z,9.09
2016-10-21T10:55:15.489Z,9.23
2016-10-21T10:56:15.448Z,9.23
2016-10-21T10:57:15.398Z,9.09
2016-10-21T10:58:15.370Z,9.2
2016-10-21T10:59:15.390Z,9.24
2016-10-21T11:00:15.393Z,9.23
2016-10-21T11:01:15.397Z,9.24
2016-10-21T11:02:15.461Z,9.11
2016-10-21T11:03:15.395Z,9.12
2016-10-21T11:04:15.400Z,9.05
2016-10-21T11:05:15.452Z,9.11
2016-10-21T11:06:15.374Z,8.94
2016-10-21T11:07:15.448Z,8.98
2016-10-21T11:08:15.400Z,9.03
2016-10-21T11:09:15.390Z,9.14
2016-10-21T11:10:15.424Z,9.14
2016-10-21T11:11:15.475Z,9.17
2016-10-21T11:12:15.469Z,9.04
2016-10-21T11:13:15.491Z,8.9
2016-10-21T11:14:15.417Z,9.01
2016-10-21T11:15:15.479Z,8.87
2016-10-21T11:16:15.507Z,8.89
2016-10-21T11:17:15.500Z,8.98
2016-10-21T11:18:15.512Z,8.92
2016-10-21T11:19:15.809Z,9.03
2016-10-21T11:20:15.526Z,9.03
2016-10-21T11:21:15.550Z,8.98
2016-10-21T11:22:15.439Z,8.97
2016-10-21T11:23:15.519Z,8.98
2016-10-21T11:24:15.501Z,9.03
2016-10-21T11:25:15.595Z,9.05
2016-10-21T11:26:15.574Z,9.14
2016-10-21T11:27:15.557Z,9.26
2016-10-21T11:28:15.454Z,9.05
2016-10-21T11:29:15.628Z,8.92
2016-10-21T11:30:15.455Z,9.08
2016-10-21T11:31:15.475Z,8.98
2016-10-21T11:32:15.573Z,9.08
2016-10-21T11:33:15.627Z,9.14
2016-10-21T11:34:15.645Z,9.09
2016-10-21T11:35:15.517Z,9.08
2016-10-21T11:36:15.529Z,9.08
2016-10-21T11:37:15.534Z,9.05
2016-10-21T11:38:15.547Z,9.11
2016-10-21T11:39:15.543Z,9.12
2016-10-21T11:40:15.759Z,8.97
2016-10-21T11:41:15.596Z,9.03
2016-10-21T11:42:15.637Z,9
2016-10-21T11:43:15.563Z,8.92
2016-10-21T11:44:15.910Z,8.94
2016-10-21T11:45:15.777Z,8.94
2016-10-21T11:46:15.719Z,8.94
2016-10-21T11:47:20.691Z,9.03
2016-10-21T11:48:15.586Z,9.05
2016-10-21T11:49:15.598Z,9.01
2016-10-21T11:50:15.626Z,9.11
2016-10-21T11:51:15.579Z,8.92
2016-10-21T11:52:15.554Z,9.05
2016-10-21T11:53:15.596Z,9.19
2016-10-21T11:54:15.496Z,9.12
2016-10-21T11:55:15.575Z,9.08
2016-10-21T11:56:15.560Z,9.26
2016-10-21T11:57:15.625Z,9.3
2016-10-21T11:58:15.518Z,9.34
2016-10-21T11:59:15.596Z,9.41
2016-10-21T12:00:15.617Z,9.45
2016-10-21T12:01:15.625Z,9.63
2016-10-21T12:02:15.465Z,9.78
2016-10-21T12:03:15.584Z,9.8
2016-10-21T12:04:15.704Z,9.88
2016-10-21T12:05:15.696Z,9.95
2016-10-21T12:06:15.566Z,10.07
2016-10-21T12:07:15.534Z,9.9
2016-10-21T12:08:15.604Z,9.71
2016-10-21T12:09:15.678Z,9.57
2016-10-21T12:10:15.627Z,9.66
2016-10-21T12:11:15.519Z,9.75
2016-10-21T12:12:15.631Z,9.6
2016-10-21T12:13:15.547Z,9.64
2016-10-21T12:14:15.565Z,9.55
2016-10-21T12:15:15.595Z,9.75
2016-10-21T12:16:15.665Z,9.66
2016-10-21T12:17:15.597Z,9.5
2016-10-21T12:18:15.740Z,9.59
2016-10-21T12:19:15.674Z,9.63
2016-10-21T12:20:15.705Z,9.55
2016-10-21T12:21:15.526Z,9.53
2016-10-21T12:22:15.656Z,9.57
2016-10-21T12:23:15.726Z,9.53
2016-10-21T12:24:15.704Z,9.57
2016-10-21T12:25:15.679Z,9.6
2016-10-21T12:26:15.660Z,9.48
2016-10-21T12:27:15.680Z,9.45
2016-10-21T12:28:19.253Z,9.45
2016-10-21T12:29:17.862Z,9.52
2016-10-21T12:30:15.721Z,9.5
2016-10-21T12:31:15.702Z,9.47
2016-10-21T12:32:15.894Z,9.5
2016-10-21T12:33:15.628Z,9.44
2016-10-21T12:34:15.816Z,9.3
2016-10-21T12:35:15.703Z,9.38
2016-10-21T12:36:16.563Z,9.45
2016-10-21T12:37:16.322Z,9.45
2016-10-21T12:38:15.779Z,9.38
2016-10-21T12:39:15.758Z,9.35
2016-10-21T12:40:15.773Z,9.32
2016-10-21T12:41:15.664Z,9.35
2016-10-21T12:42:17.641Z,9.37
2016-10-21T12:43:15.768Z,9.32
2016-10-21T12:44:15.695Z,9.34
2016-10-21T12:45:15.669Z,9.38
2016-10-21T12:46:15.834Z,9.35
2016-10-21T12:47:15.777Z,9.32
2016-10-21T12:48:15.724Z,9.35
2016-10-21T12:49:15.768Z,9.32
2016-10-21T12:50:15.794Z,9.24
2016-10-21T12:51:15.705Z,9.24
2016-10-21T12:52:15.691Z,9.29
2016-10-21T12:53:15.737Z,9.37
2016-10-21T12:54:15.640Z,9.23
2016-10-21T12:55:16.218Z,9.2
2016-10-21T12:56:15.917Z,9.29
2016-10-21T12:57:15.758Z,9.21
2016-10-21T12:58:15.797Z,9.16
2016-10-21T12:59:15.718Z,9.12
2016-10-21T13:00:15.754Z,9.23
2016-10-21T13:01:15.819Z,9.23
2016-10-21T13:02:15.754Z,9.26
2016-10-21T13:03:15.903Z,9.26
2016-10-21T13:04:15.789Z,9.2
2016-10-21T13:05:15.916Z,9.21
2016-10-21T13:06:15.697Z,9.19
2016-10-21T13:07:15.767Z,9.19
2016-10-21T13:08:15.832Z,9.17
2016-10-21T13:09:15.870Z,9.17
2016-10-21T13:10:17.930Z,9.2
2016-10-21T13:11:15.843Z,9.14
2016-10-21T13:12:16.165Z,9.12
2016-10-21T13:13:16.860Z,9.27
2016-10-21T13:14:15.881Z,9.17
2016-10-21T13:15:16.063Z,9.21
2016-10-21T13:16:16.192Z,9.17
2016-10-21T13:17:15.794Z,9.17
2016-10-21T13:18:15.996Z,9.23
2016-10-21T13:19:16.730Z,9.17
2016-10-21T13:20:15.810Z,9.11